Ahoskie, NC

3:05 AM EDT on September 03, 2014 (GMT -0400)
Tri County | Change Station
CLOSE
Current Station
Airport
Location: Ahoskie,
Elevation: 69 ft
Nearby Weather Stations

Elev 69 ft 36.30 °N, 77.17 °W | Updated 10 minutes ago

Mostly Cloudy
Mostly Cloudy
73 °F
Feels Like 73 °F
N
0
Wind Variable Wind from North

Today
High -- | Low -- °F
--% Chance of Precip.
Yesterday
High -- | Low -- °F
Precip. -- in
6:40 AM 7:32 PM
First Quarter, 59% visible
Pressure 29.99 in
Visibility 10.0 miles
Clouds Mostly Cloudy 9500 ft
Dew Point 71 °F
Humidity 93%
Rainfall 0.00 in
Snow Depth Not available.
UV 0 out of 12
Pollen 9.30 out of 12
Air Quality Not available.
Flu Activity Not available.
METAR KASJ 030655Z AUTO 00000KT 10SM BKN095 23/22 A2999 RMK AO2 T02300218

More Conditions Fewer Conditions

Pressure 29.99 in
Visibility 10.0 miles
Clouds Mostly Cloudy 9500 ft
Dew Point 71 °F
Humidity 93%
Rainfall 0.00 in
Snow Depth Not available.
UV 0 out of 12
Pollen 9.30 out of 12
Air Quality Not available.
Flu Activity Not available.
METAR KASJ 030655Z AUTO 00000KT 10SM BKN095 23/22 A2999 RMK AO2 T02300218

More Conditions Fewer Conditions

10-Day Weather Forecast

Almanac

Astronomy

Sep. 03, 2014 Rise Set
Actual Time 6:40 AM EDT 7:32 PM EDT
Civil Twilight 6:14 AM EDT 7:59 PM EDT
Nautical Twilight 5:43 AM EDT 8:30 PM EDT
Astronomical Twilight 5:11 AM EDT 9:01 PM EDT
Moon 3:07 PM EDT 12:38 AM EDT
Length of Visible Light 13h 44m
Length of Day
12h 51m
Tomorrow will be 2m 13s shorter.
First Quarter, 59% of the Moon is Illuminated
Today
First Quarter
Sep 8
Full
Sep 15
Last Quarter
Sep 24
New
Oct 1
First Quarter

Today's Extremes

State Highs State Lows

Community

WunderPhotos

Upload Photos

1,749,888 photos uploaded!

Nearby

Snow Depth

Station Depth Elevation
No new snow has been reported.

Earthquake Activity

City Distance Mag. Time & Date
No recent earthquake activity has been reported nearby.
Minimum magnitude displayed is 2.5.

Coastal Water Temperatures

Place Temperature
Oregon Inlet Marina, NC 84.9 °F
Duck Pier, NC 75.0 °F
Hatteras, NC 84.0 °F
Money Point, VA 86.0 °F
Sewells Point, VA 81.0 °F
Chesapeake Bay Bridge Tunnel, VA 80.1 °F

Nearby Weather Stations